Time;durP1;ratioP1;P1;durP2;ratioP2;P2;SDS_P1;SDS_P2;PMS_P1;PMS_P2;Temp;Humidity;BMP_temperature;BMP_pressure;BME280_temperature;BME280_humidity;BME280_pressure;Samples;Min_cycle;Max_cycle;Signal;HPM_P1;HPM_P2
2023/07/30 00:01:42;;;;;;;33.05;5.00;;;17.70;99.90;;;;;;5047450;28;20032;-75
2023/07/30 00:04:07;;;;;;;34.90;5.22;;;17.70;99.90;;;;;;5050855;28;20092;-76
2023/07/30 00:06:33;;;;;;;35.40;5.18;;;17.80;99.90;;;;;;5048999;28;20496;-75
2023/07/30 00:08:59;;;;;;;31.83;5.07;;;17.80;99.90;;;;;;5050808;28;20025;-76
2023/07/30 00:11:24;;;;;;;37.78;5.72;;;17.80;99.90;;;;;;5051016;28;20408;-75
2023/07/30 00:13:50;;;;;;;41.03;5.45;;;17.80;99.90;;;;;;5050961;28;20021;-75
2023/07/30 00:16:16;;;;;;;31.23;5.00;;;17.80;99.90;;;;;;5051476;28;20021;-75
2023/07/30 00:18:41;;;;;;;30.88;5.10;;;17.80;99.90;;;;;;5045774;28;20037;-75
2023/07/30 00:21:07;;;;;;;38.78;5.55;;;17.80;99.90;;;;;;5046855;28;20383;-75
2023/07/30 00:23:32;;;;;;;30.92;4.93;;;17.80;99.90;;;;;;5051941;28;20102;-75
2023/07/30 00:25:58;;;;;;;30.08;4.88;;;17.80;99.90;;;;;;5052064;28;20048;-75
2023/07/30 00:28:23;;;;;;;32.50;5.30;;;17.80;99.90;;;;;;5045334;28;20029;-75
2023/07/30 00:30:49;;;;;;;29.45;4.60;;;17.80;99.90;;;;;;5042275;28;20021;-75
2023/07/30 00:33:15;;;;;;;31.90;4.80;;;17.80;99.90;;;;;;5051795;28;20027;-75
2023/07/30 00:35:40;;;;;;;40.67;5.63;;;17.70;99.90;;;;;;5050855;28;20035;-76
2023/07/30 00:38:06;;;;;;;31.20;5.35;;;17.70;99.90;;;;;;5050480;28;20018;-76
2023/07/30 00:40:31;;;;;;;31.33;5.25;;;17.70;99.90;;;;;;5050439;28;20028;-75
2023/07/30 00:42:57;;;;;;;39.30;5.70;;;17.70;99.90;;;;;;5050047;28;20096;-75
2023/07/30 00:45:23;;;;;;;37.85;5.63;;;17.80;99.90;;;;;;5037648;28;20017;-75
2023/07/30 00:47:49;;;;;;;39.13;5.78;;;17.80;99.90;;;;;;5050418;28;20024;-75
2023/07/30 00:50:16;;;;;;;32.13;5.32;;;17.80;99.90;;;;;;5039988;28;20021;-75
2023/07/30 00:52:43;;;;;;;43.55;5.63;;;17.80;99.90;;;;;;5040700;28;20021;-75
2023/07/30 00:55:10;;;;;;;33.03;5.63;;;17.90;99.90;;;;;;5050699;28;20056;-75
2023/07/30 00:57:37;;;;;;;33.55;5.05;;;17.80;99.90;;;;;;5049559;28;20123;-75
2023/07/30 01:00:05;;;;;;;33.88;5.55;;;17.90;99.90;;;;;;5039780;28;20040;-75
2023/07/30 01:02:31;;;;;;;34.25;5.05;;;17.90;99.90;;;;;;5050386;28;20013;-75
2023/07/30 01:04:59;;;;;;;36.67;5.43;;;18.00;99.90;;;;;;5044323;28;20076;-75
2023/07/30 01:07:25;;;;;;;39.25;5.72;;;18.00;99.90;;;;;;5047596;28;20275;-75
2023/07/30 01:09:51;;;;;;;32.20;5.00;;;18.00;99.90;;;;;;5050089;28;20452;-75
2023/07/30 01:12:17;;;;;;;35.78;5.38;;;18.00;99.90;;;;;;5050192;28;20029;-75
2023/07/30 01:14:45;;;;;;;35.08;5.45;;;18.00;99.90;;;;;;5049986;28;20024;-75
2023/07/30 01:17:12;;;;;;;35.78;5.38;;;18.00;99.90;;;;;;5050400;28;20424;-75
2023/07/30 01:19:37;;;;;;;34.75;5.32;;;18.00;99.90;;;;;;5043657;28;20112;-75
2023/07/30 01:22:03;;;;;;;40.58;5.97;;;18.10;99.90;;;;;;5062543;28;20388;-75
2023/07/30 01:24:29;;;;;;;43.45;5.63;;;18.00;99.90;;;;;;5058640;28;20021;-75
2023/07/30 01:27:16;;;;;;;37.50;5.18;;;18.00;99.90;;;;;;5050883;28;20018;-75
2023/07/30 01:29:51;;;;;;;46.35;6.47;;;18.10;99.90;;;;;;5050648;28;20013;-75
2023/07/30 01:32:24;;;;;;;44.20;5.60;;;18.10;99.90;;;;;;5044627;28;20025;-75
2023/07/30 01:34:53;;;;;;;30.73;5.47;;;18.00;99.90;;;;;;5043144;28;20032;-75
2023/07/30 01:37:20;;;;;;;32.03;4.80;;;18.10;99.90;;;;;;5049562;28;20408;-75
2023/07/30 01:39:48;;;;;;;40.72;5.53;;;18.10;99.90;;;;;;5049733;28;20032;-75
2023/07/30 01:42:14;;;;;;;39.72;5.63;;;18.00;99.90;;;;;;5053080;28;20083;-75
2023/07/30 01:44:40;;;;;;;42.33;5.75;;;18.10;99.90;;;;;;5053890;28;20051;-75
2023/07/30 01:47:05;;;;;;;40.58;5.55;;;18.10;99.90;;;;;;5053996;28;20017;-75
2023/07/30 01:49:31;;;;;;;36.53;5.30;;;18.00;99.90;;;;;;5046695;28;20053;-75
2023/07/30 01:51:57;;;;;;;42.53;5.80;;;18.00;99.90;;;;;;5036052;28;20029;-75
2023/07/30 01:54:22;;;;;;;37.38;5.28;;;18.00;99.90;;;;;;5053712;28;20013;-75
2023/07/30 01:56:48;;;;;;;39.38;5.65;;;18.00;99.90;;;;;;5053434;28;20100;-75
2023/07/30 01:59:14;;;;;;;33.67;5.22;;;18.00;99.90;;;;;;5053176;28;20049;-75
2023/07/30 02:01:41;;;;;;;28.27;5.32;;;18.00;99.90;;;;;;5053104;28;20062;-75
2023/07/30 02:04:06;;;;;;;38.05;5.63;;;18.00;99.90;;;;;;5053073;28;20017;-76
2023/07/30 02:06:32;;;;;;;39.55;5.32;;;18.00;99.90;;;;;;5047414;28;20028;-76
2023/07/30 02:08:58;;;;;;;37.17;5.05;;;18.00;99.90;;;;;;5051948;28;20032;-76
2023/07/30 02:11:23;;;;;;;43.95;6.18;;;18.00;99.90;;;;;;5052950;28;20021;-76
2023/07/30 02:13:49;;;;;;;43.80;5.82;;;18.10;99.90;;;;;;5053035;28;20029;-75
2023/07/30 02:16:14;;;;;;;31.33;5.13;;;18.00;99.90;;;;;;5049891;28;20019;-75
2023/07/30 02:18:40;;;;;;;34.33;4.95;;;18.00;99.90;;;;;;5051556;28;20148;-76
2023/07/30 02:21:06;;;;;;;38.70;5.22;;;18.00;99.90;;;;;;5052794;28;20416;-76
2023/07/30 02:23:31;;;;;;;39.85;5.32;;;18.10;99.90;;;;;;5052931;28;20013;-75
2023/07/30 02:25:57;;;;;;;39.53;5.85;;;18.10;99.90;;;;;;5052863;28;20025;-76
2023/07/30 02:28:22;;;;;;;33.30;5.28;;;18.10;99.90;;;;;;5052848;28;20233;-75
2023/07/30 02:30:48;;;;;;;35.30;5.47;;;18.10;99.90;;;;;;5052790;28;20025;-76
2023/07/30 02:33:14;;;;;;;32.28;5.25;;;18.10;99.90;;;;;;5043333;28;20025;-76
2023/07/30 02:35:39;;;;;;;37.67;5.88;;;18.10;99.90;;;;;;5045437;28;20056;-75
2023/07/30 02:38:05;;;;;;;35.33;5.68;;;18.10;99.90;;;;;;5051700;28;20025;-75
2023/07/30 02:40:31;;;;;;;39.05;6.03;;;18.00;99.90;;;;;;5047701;28;20057;-75
2023/07/30 02:42:57;;;;;;;39.25;5.55;;;18.10;99.90;;;;;;5052469;28;20024;-75
2023/07/30 02:45:22;;;;;;;37.97;5.22;;;18.10;99.90;;;;;;5052581;28;20024;-75
2023/07/30 02:47:48;;;;;;;40.75;5.80;;;18.10;99.90;;;;;;5052818;28;20017;-75
2023/07/30 02:50:13;;;;;;;36.05;5.43;;;18.10;99.90;;;;;;5052399;28;20543;-75
2023/07/30 02:52:39;;;;;;;39.28;5.47;;;18.10;99.90;;;;;;5051754;28;20029;-75
2023/07/30 02:55:05;;;;;;;31.90;5.00;;;18.10;99.90;;;;;;5052034;28;20365;-75
2023/07/30 02:57:31;;;;;;;37.80;5.60;;;18.10;99.90;;;;;;5044920;28;20400;-75
2023/07/30 02:59:57;;;;;;;34.90;4.90;;;18.10;99.90;;;;;;5045387;28;20415;-75
2023/07/30 03:02:22;;;;;;;36.17;5.15;;;18.10;99.90;;;;;;5047291;28;20013;-75
2023/07/30 03:04:48;;;;;;;32.47;5.05;;;18.20;99.90;;;;;;5045228;28;20025;-75
2023/07/30 03:07:14;;;;;;;28.33;4.55;;;18.20;99.90;;;;;;5052431;28;20460;-76
2023/07/30 03:09:39;;;;;;;30.88;5.00;;;18.20;99.90;;;;;;5047457;28;20033;-76
2023/07/30 03:12:05;;;;;;;30.70;4.40;;;18.20;99.90;;;;;;5048271;28;20037;-75
2023/07/30 03:14:31;;;;;;;23.95;4.32;;;18.20;99.90;;;;;;5052069;28;20435;-75
2023/07/30 03:16:57;;;;;;;20.80;3.92;;;18.20;99.90;;;;;;5052012;28;20029;-75
2023/07/30 03:19:22;;;;;;;26.25;4.20;;;18.20;99.90;;;;;;5051873;28;20075;-75
2023/07/30 03:21:48;;;;;;;24.42;4.20;;;18.20;99.90;;;;;;5051962;28;20477;-75
2023/07/30 03:24:14;;;;;;;17.33;3.60;;;18.20;99.90;;;;;;5051810;28;20108;-75
2023/07/30 03:26:39;;;;;;;23.83;3.75;;;18.20;99.90;;;;;;5051668;28;20025;-75
2023/07/30 03:29:05;;;;;;;17.75;3.22;;;18.20;99.90;;;;;;5051949;28;20025;-75
2023/07/30 03:31:30;;;;;;;24.50;3.83;;;18.20;99.90;;;;;;5040359;28;20071;-75
2023/07/30 03:33:56;;;;;;;26.15;3.63;;;18.20;99.90;;;;;;5051595;28;20055;-75
2023/07/30 03:36:22;;;;;;;15.73;2.90;;;18.20;99.90;;;;;;5046246;28;20100;-75
2023/07/30 03:38:47;;;;;;;21.70;3.33;;;18.20;99.90;;;;;;5051441;28;20067;-75
2023/07/30 03:41:13;;;;;;;18.55;3.53;;;18.20;99.90;;;;;;5046230;28;20013;-75
2023/07/30 03:43:38;;;;;;;18.77;3.35;;;18.20;99.90;;;;;;5051252;28;20021;-75
2023/07/30 03:46:04;;;;;;;16.00;2.75;;;18.10;99.90;;;;;;5051172;28;20369;-75
2023/07/30 03:48:30;;;;;;;21.13;3.38;;;18.10;99.90;;;;;;5051006;28;20029;-75
2023/07/30 03:50:56;;;;;;;18.40;3.58;;;18.10;99.90;;;;;;5038040;28;20017;-75
2023/07/30 03:53:22;;;;;;;21.92;3.55;;;18.10;99.90;;;;;;5040529;28;20055;-75
2023/07/30 03:55:47;;;;;;;23.40;3.30;;;18.10;99.90;;;;;;5039404;28;20092;-75
2023/07/30 03:58:14;;;;;;;18.30;3.30;;;18.10;99.90;;;;;;5050973;28;20222;-75
2023/07/30 04:00:40;;;;;;;17.25;2.70;;;18.00;99.90;;;;;;5051047;28;20029;-75
2023/07/30 04:03:06;;;;;;;16.73;2.83;;;18.00;99.90;;;;;;5043810;28;20026;-75
2023/07/30 04:05:31;;;;;;;15.45;2.60;;;18.00;99.90;;;;;;5050739;28;20502;-75
2023/07/30 04:07:57;;;;;;;12.40;2.40;;;18.00;99.90;;;;;;5050830;28;20124;-75
2023/07/30 04:10:23;;;;;;;12.95;2.85;;;18.00;99.90;;;;;;5050628;28;20053;-75
2023/07/30 04:12:49;;;;;;;15.43;2.70;;;17.90;99.90;;;;;;5048555;28;20108;-75
2023/07/30 04:15:15;;;;;;;13.45;2.50;;;17.90;99.90;;;;;;5055472;28;20079;-75
2023/07/30 04:17:42;;;;;;;13.27;2.05;;;17.90;99.90;;;;;;5063048;28;20055;-75
2023/07/30 04:20:09;;;;;;;12.18;1.90;;;17.90;99.90;;;;;;5056896;28;20013;-75
2023/07/30 04:22:35;;;;;;;10.65;2.40;;;17.90;99.90;;;;;;5037231;28;20044;-75
2023/07/30 04:25:01;;;;;;;9.05;1.80;;;17.90;99.90;;;;;;5050486;28;20017;-75
2023/07/30 04:27:26;;;;;;;11.10;2.17;;;17.80;99.90;;;;;;5050373;28;20067;-75
2023/07/30 04:29:52;;;;;;;13.10;2.00;;;17.90;99.90;;;;;;5040518;28;20087;-75
2023/07/30 04:32:18;;;;;;;8.73;1.92;;;17.90;99.90;;;;;;5050470;28;20017;-75
2023/07/30 04:34:43;;;;;;;11.40;2.17;;;17.90;99.90;;;;;;5041369;28;20357;-75
2023/07/30 04:37:09;;;;;;;8.90;1.90;;;17.90;99.90;;;;;;5049125;28;20010;-76
2023/07/30 04:39:35;;;;;;;10.85;1.95;;;17.90;99.90;;;;;;5050395;28;20029;-75
2023/07/30 04:42:01;;;;;;;8.68;1.90;;;17.90;99.90;;;;;;5045949;28;20100;-76
2023/07/30 04:44:27;;;;;;;10.80;2.35;;;17.90;99.90;;;;;;5050471;28;20013;-75
2023/07/30 04:46:53;;;;;;;8.40;1.98;;;17.90;99.90;;;;;;5050773;28;20384;-75
2023/07/30 04:49:18;;;;;;;8.35;1.83;;;17.90;99.90;;;;;;5050830;28;20510;-75
2023/07/30 04:51:44;;;;;;;9.63;1.77;;;17.90;99.90;;;;;;5050357;28;20098;-76
2023/07/30 04:54:10;;;;;;;8.65;1.70;;;18.00;99.90;;;;;;5046765;28;20041;-75
2023/07/30 04:56:36;;;;;;;10.27;1.95;;;17.90;99.90;;;;;;5043264;28;20017;-75
2023/07/30 04:59:02;;;;;;;10.05;1.77;;;17.90;99.90;;;;;;5048413;28;20496;-75
2023/07/30 05:01:28;;;;;;;11.90;2.08;;;17.90;99.90;;;;;;5043507;28;20445;-75
2023/07/30 05:03:54;;;;;;;9.70;2.00;;;17.90;99.90;;;;;;5035399;28;20079;-75
2023/07/30 05:06:19;;;;;;;11.57;1.92;;;17.90;99.90;;;;;;5049984;28;20464;-75
2023/07/30 05:08:45;;;;;;;8.60;1.85;;;17.90;99.90;;;;;;5050212;28;20025;-75
2023/07/30 05:11:11;;;;;;;17.73;2.10;;;17.80;99.90;;;;;;5043332;28;20029;-75
2023/07/30 05:13:36;;;;;;;8.73;1.90;;;17.80;99.90;;;;;;5050163;28;20365;-75
2023/07/30 05:16:02;;;;;;;10.45;2.22;;;17.80;99.90;;;;;;5052324;28;20104;-75
2023/07/30 05:18:28;;;;;;;13.25;2.90;;;17.80;99.90;;;;;;5054404;28;20072;-75
2023/07/30 05:20:55;;;;;;;16.42;2.75;;;17.80;99.90;;;;;;5054232;28;20100;-75
2023/07/30 05:23:20;;;;;;;10.38;2.63;;;17.80;99.90;;;;;;5042603;28;20096;-75
2023/07/30 05:25:46;;;;;;;16.02;2.72;;;17.80;99.90;;;;;;5054075;28;20139;-75
2023/07/30 05:28:12;;;;;;;21.17;3.88;;;17.90;99.90;;;;;;5054246;28;20021;-75
2023/07/30 05:30:38;;;;;;;15.70;3.10;;;17.90;99.90;;;;;;5052618;28;20075;-75
2023/07/30 05:33:04;;;;;;;19.40;3.25;;;17.90;99.90;;;;;;5054200;28;20021;-75
2023/07/30 05:35:30;;;;;;;22.77;3.83;;;17.90;99.90;;;;;;5053745;28;20013;-75
2023/07/30 05:37:55;;;;;;;22.73;3.90;;;18.00;99.90;;;;;;5054299;28;20445;-75
2023/07/30 05:40:21;;;;;;;19.63;3.85;;;18.00;99.90;;;;;;5053562;28;20033;-75
2023/07/30 05:42:47;;;;;;;18.42;3.70;;;18.10;99.90;;;;;;5050834;28;20017;-75
2023/07/30 05:45:13;;;;;;;29.40;4.85;;;18.10;99.90;;;;;;5053708;28;20013;-75
2023/07/30 05:47:38;;;;;;;26.80;4.20;;;18.10;99.90;;;;;;5053659;28;20024;-75
2023/07/30 05:50:05;;;;;;;25.75;4.18;;;18.20;99.90;;;;;;5053859;28;20384;-75
2023/07/30 05:52:30;;;;;;;28.45;3.92;;;18.20;99.90;;;;;;5053772;28;20091;-75
2023/07/30 05:54:56;;;;;;;27.10;4.25;;;18.20;99.90;;;;;;5044104;28;20109;-76
2023/07/30 05:57:22;;;;;;;26.98;4.93;;;18.20;99.90;;;;;;5051339;28;20522;-76
2023/07/30 05:59:47;;;;;;;25.40;4.45;;;18.30;99.90;;;;;;5046264;28;20043;-76
2023/07/30 06:02:13;;;;;;;24.55;4.35;;;18.20;99.90;;;;;;5045016;28;20268;-76
2023/07/30 06:04:39;;;;;;;26.27;4.30;;;18.20;99.90;;;;;;5040065;28;20349;-76
2023/07/30 06:07:05;;;;;;;25.70;5.30;;;18.20;99.90;;;;;;5053503;28;20017;-75
2023/07/30 06:09:31;;;;;;;25.27;4.25;;;18.20;99.90;;;;;;5053462;28;20025;-75
2023/07/30 06:11:57;;;;;;;22.63;4.30;;;18.30;99.90;;;;;;5053326;28;20074;-76
2023/07/30 06:14:26;;;;;;;23.67;4.32;;;18.30;99.90;;;;;;5053418;28;20043;-76
2023/07/30 06:16:53;;;;;;;25.27;3.80;;;18.30;99.90;;;;;;5053128;28;20477;-76
2023/07/30 06:19:19;;;;;;;19.15;3.42;;;18.30;99.90;;;;;;5053312;28;20082;-76
2023/07/30 06:21:45;;;;;;;30.73;4.25;;;18.30;99.90;;;;;;5053172;28;20100;-75
2023/07/30 06:24:10;;;;;;;20.52;3.85;;;18.30;99.90;;;;;;5040799;28;20032;-76
2023/07/30 06:26:36;;;;;;;26.67;3.92;;;18.30;99.90;;;;;;5047709;28;20401;-76
2023/07/30 06:29:02;;;;;;;21.23;3.90;;;18.30;99.90;;;;;;5046506;28;20061;-76
2023/07/30 06:31:28;;;;;;;22.88;4.05;;;18.30;99.90;;;;;;5050423;28;20074;-76
2023/07/30 06:33:54;;;;;;;20.90;4.13;;;18.30;99.90;;;;;;5038230;28;20025;-75
2023/07/30 06:36:19;;;;;;;20.75;3.80;;;18.30;99.90;;;;;;5047355;28;20040;-76
2023/07/30 06:38:45;;;;;;;22.92;3.80;;;18.30;99.90;;;;;;5052716;28;20104;-76
2023/07/30 06:41:10;;;;;;;26.02;3.83;;;18.30;99.90;;;;;;5047220;28;20029;-76
2023/07/30 06:43:36;;;;;;;28.15;4.35;;;18.30;99.90;;;;;;5048577;28;20026;-76
2023/07/30 06:46:02;;;;;;;18.95;3.13;;;18.40;99.90;;;;;;5050684;28;20423;-76
2023/07/30 06:48:27;;;;;;;27.70;3.70;;;18.40;99.90;;;;;;5052670;28;20029;-76
2023/07/30 06:50:53;;;;;;;16.33;3.00;;;18.50;99.90;;;;;;5052533;28;20461;-76
2023/07/30 06:53:19;;;;;;;23.08;3.55;;;18.60;99.90;;;;;;5052788;28;20017;-76
2023/07/30 06:55:45;;;;;;;25.30;3.67;;;18.60;99.90;;;;;;5051352;28;20025;-76
2023/07/30 06:58:11;;;;;;;18.20;3.13;;;18.60;99.90;;;;;;5052302;28;20617;-76
2023/07/30 07:00:37;;;;;;;21.08;4.00;;;18.60;99.90;;;;;;5052644;28;20033;-76
2023/07/30 07:03:03;;;;;;;27.67;4.90;;;18.60;99.90;;;;;;5045927;28;20037;-76
2023/07/30 07:05:29;;;;;;;23.73;4.90;;;18.50;99.90;;;;;;5045250;28;20028;-76
2023/07/30 07:07:55;;;;;;;23.90;4.45;;;18.50;99.90;;;;;;5044526;28;20018;-75
2023/07/30 07:10:20;;;;;;;26.13;4.53;;;18.50;99.90;;;;;;5058538;28;20021;-76
2023/07/30 07:12:47;;;;;;;26.35;4.45;;;18.40;99.90;;;;;;5061900;28;20032;-76
2023/07/30 07:15:13;;;;;;;23.50;4.38;;;18.40;99.90;;;;;;5058748;28;20019;-76
2023/07/30 07:17:39;;;;;;;25.67;4.25;;;18.40;99.90;;;;;;5053664;28;20022;-76
2023/07/30 07:20:07;;;;;;;24.27;4.20;;;18.40;99.90;;;;;;5040326;28;20385;-77
2023/07/30 07:22:33;;;;;;;22.77;4.03;;;18.40;99.90;;;;;;5040641;28;20071;-76
2023/07/30 07:24:58;;;;;;;21.33;3.80;;;18.40;99.90;;;;;;5052298;28;20039;-76
2023/07/30 07:27:24;;;;;;;22.27;4.22;;;18.40;99.90;;;;;;5051617;28;20084;-76
2023/07/30 07:29:51;;;;;;;17.45;3.10;;;18.30;99.90;;;;;;5043290;28;20419;-76
2023/07/30 07:32:17;;;;;;;16.05;3.33;;;18.30;99.90;;;;;;5051922;28;20032;-75
2023/07/30 07:34:46;;;;;;;15.25;2.58;;;18.30;99.90;;;;;;5051923;28;20009;-75
2023/07/30 07:37:15;;;;;;;15.13;2.50;;;18.20;99.90;;;;;;5051668;28;20020;-75
2023/07/30 07:39:43;;;;;;;17.65;2.72;;;18.30;99.90;;;;;;5045725;28;20020;-75
2023/07/30 07:42:09;;;;;;;19.67;2.80;;;18.30;99.90;;;;;;5047570;28;20116;-75
2023/07/30 07:44:35;;;;;;;13.32;2.60;;;18.40;99.90;;;;;;5051602;28;20093;-75
2023/07/30 07:47:01;;;;;;;9.60;2.20;;;18.50;99.90;;;;;;5051120;28;20108;-75
2023/07/30 07:49:27;;;;;;;11.45;2.47;;;18.50;99.90;;;;;;5045257;28;20022;-75
2023/07/30 07:51:52;;;;;;;13.85;2.90;;;18.60;99.90;;;;;;5033562;28;20047;-75
2023/07/30 07:54:18;;;;;;;10.48;1.92;;;18.70;99.90;;;;;;5047024;28;20088;-75
2023/07/30 07:56:44;;;;;;;12.95;2.50;;;18.70;99.90;;;;;;5045478;28;20049;-75
2023/07/30 07:59:09;;;;;;;13.90;2.95;;;18.70;99.90;;;;;;5048243;28;20049;-75
2023/07/30 08:01:35;;;;;;;14.75;2.30;;;18.80;99.90;;;;;;5045821;28;20021;-75
2023/07/30 08:04:01;;;;;;;17.20;2.28;;;18.90;99.90;;;;;;5051067;28;20102;-75
2023/07/30 08:06:27;;;;;;;14.43;2.20;;;18.90;99.90;;;;;;5046604;28;20037;-75
2023/07/30 08:08:52;;;;;;;13.43;2.58;;;18.90;99.90;;;;;;5052131;28;20025;-75
2023/07/30 08:11:18;;;;;;;14.65;2.60;;;18.90;99.90;;;;;;5045144;28;20527;-75
2023/07/30 08:13:43;;;;;;;14.95;2.65;;;18.80;99.90;;;;;;5048642;28;20039;-75
2023/07/30 08:16:09;;;;;;;10.90;2.10;;;18.90;99.90;;;;;;5048674;28;20112;-76
2023/07/30 08:18:35;;;;;;;14.70;2.40;;;18.90;99.90;;;;;;5050752;28;20310;-76
2023/07/30 08:21:00;;;;;;;12.00;2.10;;;18.90;99.90;;;;;;5037990;28;20074;-76
2023/07/30 08:23:26;;;;;;;11.38;2.58;;;18.80;99.90;;;;;;5044925;28;20100;-76
2023/07/30 08:25:52;;;;;;;18.58;2.65;;;18.90;99.90;;;;;;5034383;28;20362;-76
2023/07/30 08:28:18;;;;;;;15.45;2.50;;;18.80;99.90;;;;;;5042276;28;20017;-76
2023/07/30 08:30:44;;;;;;;11.80;2.50;;;18.80;99.90;;;;;;5044676;28;20036;-76
2023/07/30 08:33:09;;;;;;;15.95;2.60;;;18.80;99.90;;;;;;5045907;28;20025;-76
2023/07/30 08:35:35;;;;;;;16.42;2.47;;;18.80;99.90;;;;;;5053709;28;20092;-76
2023/07/30 08:38:01;;;;;;;18.58;3.08;;;18.80;99.90;;;;;;5053374;28;20104;-76
2023/07/30 08:40:26;;;;;;;10.55;2.20;;;18.80;99.90;;;;;;5047789;28;20093;-75
2023/07/30 08:42:53;;;;;;;14.27;2.58;;;18.80;99.90;;;;;;5049027;28;20017;-75
2023/07/30 08:45:19;;;;;;;14.25;2.67;;;18.90;99.90;;;;;;5050145;28;20017;-75
2023/07/30 08:47:46;;;;;;;11.73;2.70;;;18.90;99.90;;;;;;5053601;28;20031;-76
2023/07/30 08:50:12;;;;;;;14.68;2.75;;;18.90;99.90;;;;;;5052700;28;20025;-76
2023/07/30 08:52:38;;;;;;;13.65;2.60;;;18.90;99.90;;;;;;5050674;28;20075;-76
2023/07/30 08:55:05;;;;;;;10.38;2.58;;;18.90;99.90;;;;;;5051216;28;20025;-76
2023/07/30 08:57:31;;;;;;;15.40;2.55;;;19.00;99.90;;;;;;5035578;28;20025;-76
2023/07/30 09:00:10;;;;;;;15.30;2.45;;;19.10;99.90;;;;;;5046224;28;20053;-76
2023/07/30 09:02:41;;;;;;;12.38;2.30;;;19.20;99.90;;;;;;5043544;28;20404;-76
2023/07/30 09:05:07;;;;;;;9.93;2.30;;;19.30;99.90;;;;;;5051957;28;20075;-76
2023/07/30 09:07:33;;;;;;;14.45;2.42;;;19.40;99.90;;;;;;5045534;28;20460;-76
2023/07/30 09:09:59;;;;;;;12.30;2.45;;;19.60;99.90;;;;;;5051288;28;20035;-76
2023/07/30 09:12:31;;;;;;;15.23;2.60;;;19.70;99.90;;;;;;5051945;28;20083;-76
2023/07/30 09:14:57;;;;;;;12.73;2.67;;;19.70;99.90;;;;;;5048327;28;20021;-76
2023/07/30 09:17:25;;;;;;;14.98;2.80;;;19.70;99.90;;;;;;5051945;28;20532;-76
2023/07/30 09:19:52;;;;;;;14.95;2.53;;;19.70;99.90;;;;;;5051077;28;20036;-76
2023/07/30 09:22:28;;;;;;;10.10;2.13;;;19.80;99.90;;;;;;5051262;28;20056;-76
2023/07/30 09:24:58;;;;;;;8.77;2.20;;;19.80;99.90;;;;;;5049110;28;20020;-76
2023/07/30 09:27:26;;;;;;;12.82;2.50;;;19.80;99.90;;;;;;5051216;28;20106;-76
2023/07/30 09:30:02;;;;;;;9.45;2.05;;;19.90;99.90;;;;;;5051214;28;20021;-76
2023/07/30 09:32:30;;;;;;;12.40;2.50;;;19.90;99.90;;;;;;5051449;28;20415;-76
2023/07/30 09:35:10;;;;;;;8.95;2.05;;;20.00;99.90;;;;;;5051271;28;20025;-76
2023/07/30 09:37:38;;;;;;;14.57;2.45;;;20.10;99.90;;;;;;5046093;28;20033;-76
2023/07/30 09:40:07;;;;;;;15.80;2.58;;;20.10;99.90;;;;;;5051218;28;20032;-76
2023/07/30 09:42:39;;;;;;;15.15;2.78;;;20.10;99.90;;;;;;5052163;28;20057;-76
2023/07/30 09:45:07;;;;;;;13.55;2.65;;;20.10;99.90;;;;;;5049569;28;20044;-76
2023/07/30 09:47:35;;;;;;;8.63;2.10;;;20.10;99.90;;;;;;5051335;28;20820;-76
2023/07/30 09:50:01;;;;;;;15.85;2.47;;;20.10;99.90;;;;;;5050935;28;20037;-76
2023/07/30 09:52:28;;;;;;;8.82;1.95;;;20.20;99.90;;;;;;5047700;28;20033;-76
2023/07/30 09:54:55;;;;;;;11.98;2.22;;;20.50;99.90;;;;;;5043592;28;20096;-75
2023/07/30 09:57:21;;;;;;;14.18;2.60;;;20.70;99.90;;;;;;5040211;28;20096;-75
2023/07/30 09:59:46;;;;;;;14.40;2.53;;;20.90;99.90;;;;;;5045577;28;20144;-76
2023/07/30 10:02:13;;;;;;;10.35;2.30;;;21.00;99.90;;;;;;5059793;28;20503;-76
2023/07/30 10:04:43;;;;;;;9.55;2.03;;;21.10;99.90;;;;;;5060838;28;20030;-76
2023/07/30 10:07:16;;;;;;;10.25;2.28;;;21.10;99.90;;;;;;5066701;28;20083;-76
2023/07/30 10:09:45;;;;;;;11.60;2.15;;;21.10;99.90;;;;;;5057951;28;20056;-76
2023/07/30 10:12:15;;;;;;;11.82;2.28;;;21.10;99.90;;;;;;5055776;28;20029;-76
2023/07/30 10:14:41;;;;;;;13.63;2.33;;;21.00;99.90;;;;;;5051538;28;20029;-76
2023/07/30 10:17:10;;;;;;;13.30;2.40;;;20.90;99.90;;;;;;5054107;28;20017;-76
2023/07/30 10:19:36;;;;;;;10.85;2.10;;;20.90;99.90;;;;;;5053183;28;20040;-76
2023/07/30 10:22:21;;;;;;;10.98;2.58;;;20.80;99.90;;;;;;5053633;28;20021;-76
2023/07/30 10:25:07;;;;;;;;;;;20.70;99.90;;;;;;5050310;28;20024;-76
2023/07/30 10:27:38;;;;;;;13.77;2.30;;;20.60;99.90;;;;;;5045814;28;20367;-76
2023/07/30 10:30:14;;;;;;;15.70;2.50;;;20.50;99.90;;;;;;5051943;28;20321;-76
2023/07/30 10:32:55;;;;;;;12.55;2.40;;;20.60;99.90;;;;;;5053195;28;20451;-76
2023/07/30 10:35:37;;;;;;;12.45;2.67;;;20.60;99.90;;;;;;5038498;28;20473;-76
2023/07/30 10:38:29;;;;;;;11.80;2.28;;;20.60;99.90;;;;;;5041811;28;20028;-76
2023/07/30 10:41:11;;;;;;;11.80;2.15;;;20.60;99.90;;;;;;5048278;28;20033;-75
2023/07/30 10:43:40;;;;;;;13.02;1.85;;;20.60;99.90;;;;;;5057276;28;20025;-76
2023/07/30 10:46:08;;;;;;;13.32;2.20;;;20.70;99.90;;;;;;5044101;28;20009;-76
2023/07/30 10:48:38;;;;;;;14.30;2.60;;;20.90;99.90;;;;;;5053045;28;20677;-76
2023/07/30 10:51:08;;;;;;;12.52;2.35;;;21.00;99.90;;;;;;5052974;28;20028;-76
2023/07/30 10:53:37;;;;;;;8.93;1.90;;;21.10;99.90;;;;;;5041438;28;20389;-76
2023/07/30 10:56:04;;;;;;;11.05;2.20;;;21.20;99.90;;;;;;5037375;28;20024;-76
2023/07/30 10:58:31;;;;;;;12.65;2.00;;;21.30;99.90;;;;;;5038932;28;20496;-76
2023/07/30 11:00:58;;;;;;;10.57;2.13;;;21.20;99.90;;;;;;5044741;28;20021;-76
2023/07/30 11:03:27;;;;;;;10.25;2.15;;;21.30;99.90;;;;;;5055075;28;20017;-75
2023/07/30 11:05:54;;;;;;;10.45;1.83;;;21.20;99.90;;;;;;5055970;28;20033;-76
2023/07/30 11:08:22;;;;;;;7.22;1.63;;;21.20;99.90;;;;;;5052304;28;20028;-76
2023/07/30 11:10:47;;;;;;;11.30;1.90;;;21.20;99.90;;;;;;5049020;28;20029;-75
2023/07/30 11:13:14;;;;;;;13.98;2.13;;;21.10;99.90;;;;;;5054859;28;20083;-76
2023/07/30 11:15:43;;;;;;;8.32;1.83;;;21.00;99.90;;;;;;5052531;28;20025;-76
2023/07/30 11:18:11;;;;;;;7.05;1.70;;;21.00;99.90;;;;;;5054307;28;20045;-75
2023/07/30 11:20:37;;;;;;;11.15;2.05;;;21.00;99.90;;;;;;5054767;28;20025;-76
2023/07/30 11:23:03;;;;;;;9.05;1.92;;;21.00;99.90;;;;;;5052177;28;20495;-76
2023/07/30 11:25:28;;;;;;;8.07;1.92;;;21.10;99.90;;;;;;5045698;28;20025;-75
2023/07/30 11:27:54;;;;;;;12.38;2.10;;;21.10;99.90;;;;;;5043832;28;20021;-76
2023/07/30 11:30:20;;;;;;;11.63;2.28;;;21.10;99.90;;;;;;5054481;28;20067;-76
2023/07/30 11:32:46;;;;;;;12.23;2.10;;;21.10;99.90;;;;;;5045168;28;20476;-75
2023/07/30 11:35:13;;;;;;;10.50;2.22;;;21.00;99.90;;;;;;5044460;28;20098;-75
2023/07/30 11:37:42;;;;;;;8.50;1.77;;;21.00;99.90;;;;;;5049040;28;20199;-75
2023/07/30 11:40:09;;;;;;;8.68;1.80;;;21.10;99.90;;;;;;5045528;28;20021;-76
2023/07/30 11:42:36;;;;;;;10.82;1.92;;;21.20;99.90;;;;;;5054020;28;20028;-76
2023/07/30 11:45:22;;;;;;;7.25;1.48;;;21.20;99.90;;;;;;5050762;28;20025;-75
2023/07/30 11:47:49;;;;;;;9.60;1.80;;;21.30;99.90;;;;;;5041602;28;20376;-76
2023/07/30 11:50:15;;;;;;;15.70;2.25;;;21.30;99.90;;;;;;5054204;28;20032;-75
2023/07/30 11:52:52;;;;;;;9.48;1.90;;;21.50;99.90;;;;;;5049038;28;20037;-76
2023/07/30 11:55:19;;;;;;;11.05;1.70;;;21.60;99.90;;;;;;5048596;28;20028;-76
2023/07/30 11:57:45;;;;;;;11.05;1.90;;;21.60;99.90;;;;;;5048907;28;20462;-76
2023/07/30 12:00:11;;;;;;;11.07;1.80;;;21.70;99.90;;;;;;5049692;28;20103;-76
2023/07/30 12:02:38;;;;;;;10.43;1.92;;;21.70;99.90;;;;;;5044908;28;20037;-76
2023/07/30 12:05:04;;;;;;;12.75;2.00;;;21.80;99.90;;;;;;5046307;28;20036;-76
2023/07/30 12:07:33;;;;;;;13.77;2.33;;;22.00;99.90;;;;;;5054402;28;20468;-76
2023/07/30 12:10:12;;;;;;;8.93;1.50;;;22.10;99.90;;;;;;5055008;28;20590;-76
2023/07/30 12:12:52;;;;;;;9.20;1.55;;;22.10;99.90;;;;;;5050814;28;20503;-76
2023/07/30 12:15:18;;;;;;;10.75;1.90;;;22.20;99.90;;;;;;5042247;28;20093;-76
2023/07/30 12:17:44;;;;;;;11.25;1.75;;;22.30;99.90;;;;;;5052398;28;20092;-76
2023/07/30 12:20:11;;;;;;;7.22;1.60;;;22.30;99.90;;;;;;5053123;28;20028;-76
2023/07/30 12:22:38;;;;;;;8.75;1.52;;;22.30;99.90;;;;;;5040218;28;20033;-75
2023/07/30 12:25:04;;;;;;;10.23;1.80;;;22.40;99.90;;;;;;5051919;28;20024;-76
2023/07/30 12:27:30;;;;;;;7.93;1.67;;;22.30;99.90;;;;;;5052392;28;20234;-76
2023/07/30 12:29:56;;;;;;;8.80;1.70;;;22.40;99.90;;;;;;5053258;28;20032;-76
2023/07/30 12:32:22;;;;;;;10.00;1.73;;;22.40;99.90;;;;;;5052880;28;20018;-75
2023/07/30 12:34:47;;;;;;;12.27;1.80;;;22.40;99.90;;;;;;5054500;28;20025;-76
2023/07/30 12:37:14;;;;;;;6.22;1.67;;;22.30;99.90;;;;;;5053020;28;20016;-75